sensor_id;sensor_type;location;lat;lon;timestamp;temperature;humidity
24614;DHT22;12760;46.296;25.290;2022-10-16T00:01:56;10.60;99.90
24614;DHT22;12760;46.296;25.290;2022-10-16T00:04:22;10.60;99.90
24614;DHT22;12760;46.296;25.290;2022-10-16T00:06:48;10.60;99.90
24614;DHT22;12760;46.296;25.290;2022-10-16T00:09:13;10.50;99.90
24614;DHT22;12760;46.296;25.290;2022-10-16T00:11:40;10.50;99.90
24614;DHT22;12760;46.296;25.290;2022-10-16T00:14:12;10.40;99.90
24614;DHT22;12760;46.296;25.290;2022-10-16T00:16:38;10.30;99.90
24614;DHT22;12760;46.296;25.290;2022-10-16T00:19:05;10.30;99.90
24614;DHT22;12760;46.296;25.290;2022-10-16T00:21:31;10.20;99.90
24614;DHT22;12760;46.296;25.290;2022-10-16T00:24:02;10.20;99.90
24614;DHT22;12760;46.296;25.290;2022-10-16T00:26:31;10.20;99.90
24614;DHT22;12760;46.296;25.290;2022-10-16T00:28:57;10.30;99.90
24614;DHT22;12760;46.296;25.290;2022-10-16T00:31:23;10.30;99.90
24614;DHT22;12760;46.296;25.290;2022-10-16T00:33:49;10.20;99.90
24614;DHT22;12760;46.296;25.290;2022-10-16T00:36:17;10.20;99.90
24614;DHT22;12760;46.296;25.290;2022-10-16T00:38:44;10.20;99.90
24614;DHT22;12760;46.296;25.290;2022-10-16T00:41:13;10.10;99.90
24614;DHT22;12760;46.296;25.290;2022-10-16T00:44:03;10.10;99.90
24614;DHT22;12760;46.296;25.290;2022-10-16T00:46:38;10.10;99.90
24614;DHT22;12760;46.296;25.290;2022-10-16T00:51:38;10.10;99.90
24614;DHT22;12760;46.296;25.290;2022-10-16T00:54:09;10.00;99.90
24614;DHT22;12760;46.296;25.290;2022-10-16T00:56:35;10.10;99.90
24614;DHT22;12760;46.296;25.290;2022-10-16T00:59:08;10.00;99.90
24614;DHT22;12760;46.296;25.290;2022-10-16T01:01:37;10.00;99.90
24614;DHT22;12760;46.296;25.290;2022-10-16T01:04:02;10.00;99.90
24614;DHT22;12760;46.296;25.290;2022-10-16T01:06:43;10.00;99.90
24614;DHT22;12760;46.296;25.290;2022-10-16T01:09:27;10.00;99.90
24614;DHT22;12760;46.296;25.290;2022-10-16T01:12:10;10.10;99.90
24614;DHT22;12760;46.296;25.290;2022-10-16T01:15:08;10.10;99.90
24614;DHT22;12760;46.296;25.290;2022-10-16T01:20:14;9.90;99.90
24614;DHT22;12760;46.296;25.290;2022-10-16T01:23:15;9.90;99.90
24614;DHT22;12760;46.296;25.290;2022-10-16T01:26:09;9.90;99.90
24614;DHT22;12760;46.296;25.290;2022-10-16T01:28:56;9.90;99.90
24614;DHT22;12760;46.296;25.290;2022-10-16T01:31:26;9.90;99.90
24614;DHT22;12760;46.296;25.290;2022-10-16T01:34:17;9.80;99.90
24614;DHT22;12760;46.296;25.290;2022-10-16T01:36:55;9.90;99.90
24614;DHT22;12760;46.296;25.290;2022-10-16T01:39:27;9.80;99.90
24614;DHT22;12760;46.296;25.290;2022-10-16T01:42:16;9.80;99.90
24614;DHT22;12760;46.296;25.290;2022-10-16T01:44:43;9.80;99.90
24614;DHT22;12760;46.296;25.290;2022-10-16T01:47:13;9.80;99.90
24614;DHT22;12760;46.296;25.290;2022-10-16T01:49:40;9.80;99.90
24614;DHT22;12760;46.296;25.290;2022-10-16T01:52:10;9.80;99.90
24614;DHT22;12760;46.296;25.290;2022-10-16T01:54:40;9.80;99.90
24614;DHT22;12760;46.296;25.290;2022-10-16T01:57:07;9.80;99.90
24614;DHT22;12760;46.296;25.290;2022-10-16T01:59:40;9.70;99.90
24614;DHT22;12760;46.296;25.290;2022-10-16T02:02:09;9.70;99.90
24614;DHT22;12760;46.296;25.290;2022-10-16T02:04:39;9.60;99.90
24614;DHT22;12760;46.296;25.290;2022-10-16T02:07:07;9.60;99.90
24614;DHT22;12760;46.296;25.290;2022-10-16T02:09:33;9.60;99.90
24614;DHT22;12760;46.296;25.290;2022-10-16T02:12:03;9.60;99.90
24614;DHT22;12760;46.296;25.290;2022-10-16T02:14:32;9.60;99.90
24614;DHT22;12760;46.296;25.290;2022-10-16T02:16:58;9.70;99.90
24614;DHT22;12760;46.296;25.290;2022-10-16T02:19:24;9.60;99.90
24614;DHT22;12760;46.296;25.290;2022-10-16T02:22:04;9.60;99.90
24614;DHT22;12760;46.296;25.290;2022-10-16T02:24:42;9.60;99.90
24614;DHT22;12760;46.296;25.290;2022-10-16T02:29:55;9.60;99.90
24614;DHT22;12760;46.296;25.290;2022-10-16T02:32:27;9.50;99.90
24614;DHT22;12760;46.296;25.290;2022-10-16T02:34:56;9.50;99.90
24614;DHT22;12760;46.296;25.290;2022-10-16T02:37:24;9.50;99.90
24614;DHT22;12760;46.296;25.290;2022-10-16T02:39:50;9.50;99.90
24614;DHT22;12760;46.296;25.290;2022-10-16T02:42:17;9.50;99.90
24614;DHT22;12760;46.296;25.290;2022-10-16T02:44:43;9.50;99.90
24614;DHT22;12760;46.296;25.290;2022-10-16T02:47:09;9.50;99.90
24614;DHT22;12760;46.296;25.290;2022-10-16T02:49:35;9.40;99.90
24614;DHT22;12760;46.296;25.290;2022-10-16T02:52:00;9.40;99.90
24614;DHT22;12760;46.296;25.290;2022-10-16T02:54:26;9.30;99.90
24614;DHT22;12760;46.296;25.290;2022-10-16T02:56:52;9.30;99.90
24614;DHT22;12760;46.296;25.290;2022-10-16T02:59:17;9.30;99.90
24614;DHT22;12760;46.296;25.290;2022-10-16T03:01:43;9.30;99.90
24614;DHT22;12760;46.296;25.290;2022-10-16T03:04:09;9.30;99.90
24614;DHT22;12760;46.296;25.290;2022-10-16T03:06:35;9.30;99.90
24614;DHT22;12760;46.296;25.290;2022-10-16T03:09:01;9.30;99.90
24614;DHT22;12760;46.296;25.290;2022-10-16T03:11:26;9.20;99.90
24614;DHT22;12760;46.296;25.290;2022-10-16T03:13:53;9.20;99.90
24614;DHT22;12760;46.296;25.290;2022-10-16T03:16:19;9.20;99.90
24614;DHT22;12760;46.296;25.290;2022-10-16T03:18:48;9.20;99.90
24614;DHT22;12760;46.296;25.290;2022-10-16T03:21:15;9.20;99.90
24614;DHT22;12760;46.296;25.290;2022-10-16T03:23:40;9.20;99.90
24614;DHT22;12760;46.296;25.290;2022-10-16T03:26:06;9.20;99.90
24614;DHT22;12760;46.296;25.290;2022-10-16T03:28:32;9.20;99.90
24614;DHT22;12760;46.296;25.290;2022-10-16T03:30:57;9.20;99.90
24614;DHT22;12760;46.296;25.290;2022-10-16T03:33:23;9.10;99.90
24614;DHT22;12760;46.296;25.290;2022-10-16T03:35:53;9.10;99.90
24614;DHT22;12760;46.296;25.290;2022-10-16T03:38:20;9.10;99.90
24614;DHT22;12760;46.296;25.290;2022-10-16T03:40:46;9.10;99.90
24614;DHT22;12760;46.296;25.290;2022-10-16T03:43:11;9.10;99.90
24614;DHT22;12760;46.296;25.290;2022-10-16T03:45:37;9.10;99.90
24614;DHT22;12760;46.296;25.290;2022-10-16T03:48:03;9.00;99.90
24614;DHT22;12760;46.296;25.290;2022-10-16T03:50:29;9.00;99.90
24614;DHT22;12760;46.296;25.290;2022-10-16T03:52:55;9.00;99.90
24614;DHT22;12760;46.296;25.290;2022-10-16T03:55:21;8.90;99.90
24614;DHT22;12760;46.296;25.290;2022-10-16T03:57:46;8.90;99.90
24614;DHT22;12760;46.296;25.290;2022-10-16T04:00:12;8.90;99.90
24614;DHT22;12760;46.296;25.290;2022-10-16T04:02:38;8.90;99.90
24614;DHT22;12760;46.296;25.290;2022-10-16T04:05:04;8.90;99.90
24614;DHT22;12760;46.296;25.290;2022-10-16T04:07:30;8.90;99.90
24614;DHT22;12760;46.296;25.290;2022-10-16T04:09:55;8.90;99.90
24614;DHT22;12760;46.296;25.290;2022-10-16T04:12:22;8.90;99.90
24614;DHT22;12760;46.296;25.290;2022-10-16T04:14:48;8.90;99.90
24614;DHT22;12760;46.296;25.290;2022-10-16T04:17:13;8.80;99.90
24614;DHT22;12760;46.296;25.290;2022-10-16T04:19:39;8.80;99.90
24614;DHT22;12760;46.296;25.290;2022-10-16T04:22:05;8.80;99.90
24614;DHT22;12760;46.296;25.290;2022-10-16T04:24:31;8.80;99.90
24614;DHT22;12760;46.296;25.290;2022-10-16T04:26:56;8.70;99.90
24614;DHT22;12760;46.296;25.290;2022-10-16T04:29:22;8.70;99.90
24614;DHT22;12760;46.296;25.290;2022-10-16T04:31:48;8.70;99.90
24614;DHT22;12760;46.296;25.290;2022-10-16T04:34:13;8.70;99.90
24614;DHT22;12760;46.296;25.290;2022-10-16T04:36:39;8.70;99.90
24614;DHT22;12760;46.296;25.290;2022-10-16T04:39:05;8.70;99.90
24614;DHT22;12760;46.296;25.290;2022-10-16T04:41:30;8.70;99.90
24614;DHT22;12760;46.296;25.290;2022-10-16T04:43:56;8.70;99.90
24614;DHT22;12760;46.296;25.290;2022-10-16T04:46:22;8.70;99.90
24614;DHT22;12760;46.296;25.290;2022-10-16T04:48:47;8.70;99.90
24614;DHT22;12760;46.296;25.290;2022-10-16T04:51:13;8.70;99.90
24614;DHT22;12760;46.296;25.290;2022-10-16T04:53:39;8.60;99.90
24614;DHT22;12760;46.296;25.290;2022-10-16T04:56:05;8.60;99.90
24614;DHT22;12760;46.296;25.290;2022-10-16T04:58:31;8.60;99.90
24614;DHT22;12760;46.296;25.290;2022-10-16T05:00:56;8.60;99.90
24614;DHT22;12760;46.296;25.290;2022-10-16T05:03:22;8.60;99.90
24614;DHT22;12760;46.296;25.290;2022-10-16T05:05:48;8.60;99.90
24614;DHT22;12760;46.296;25.290;2022-10-16T05:08:15;8.60;99.90
24614;DHT22;12760;46.296;25.290;2022-10-16T05:10:42;8.60;99.90
24614;DHT22;12760;46.296;25.290;2022-10-16T05:13:08;8.50;99.90
24614;DHT22;12760;46.296;25.290;2022-10-16T05:15:34;8.60;99.90
24614;DHT22;12760;46.296;25.290;2022-10-16T05:17:59;8.60;99.90
24614;DHT22;12760;46.296;25.290;2022-10-16T05:20:25;8.70;99.90
24614;DHT22;12760;46.296;25.290;2022-10-16T05:22:51;8.60;99.90
24614;DHT22;12760;46.296;25.290;2022-10-16T05:25:17;8.70;99.90
24614;DHT22;12760;46.296;25.290;2022-10-16T05:27:46;8.70;99.90
24614;DHT22;12760;46.296;25.290;2022-10-16T05:30:12;8.70;99.90
24614;DHT22;12760;46.296;25.290;2022-10-16T05:32:38;8.70;99.90
24614;DHT22;12760;46.296;25.290;2022-10-16T05:35:04;8.70;99.90
24614;DHT22;12760;46.296;25.290;2022-10-16T05:37:29;8.70;99.90
24614;DHT22;12760;46.296;25.290;2022-10-16T05:39:55;8.70;99.90
24614;DHT22;12760;46.296;25.290;2022-10-16T05:42:21;8.80;99.90
24614;DHT22;12760;46.296;25.290;2022-10-16T05:44:47;8.80;99.90
24614;DHT22;12760;46.296;25.290;2022-10-16T05:47:13;8.80;99.90
24614;DHT22;12760;46.296;25.290;2022-10-16T05:49:39;8.80;99.90
24614;DHT22;12760;46.296;25.290;2022-10-16T05:52:05;8.80;99.90
24614;DHT22;12760;46.296;25.290;2022-10-16T05:54:31;8.70;99.90
24614;DHT22;12760;46.296;25.290;2022-10-16T05:56:56;8.70;99.90
24614;DHT22;12760;46.296;25.290;2022-10-16T05:59:22;8.70;99.90
24614;DHT22;12760;46.296;25.290;2022-10-16T06:01:48;8.70;99.90
24614;DHT22;12760;46.296;25.290;2022-10-16T06:04:13;8.60;99.90
24614;DHT22;12760;46.296;25.290;2022-10-16T06:06:39;8.60;99.90
24614;DHT22;12760;46.296;25.290;2022-10-16T06:09:05;8.60;99.90
24614;DHT22;12760;46.296;25.290;2022-10-16T06:11:32;8.60;99.90
24614;DHT22;12760;46.296;25.290;2022-10-16T06:14:00;8.60;99.90
24614;DHT22;12760;46.296;25.290;2022-10-16T06:16:28;8.60;99.90
24614;DHT22;12760;46.296;25.290;2022-10-16T06:18:55;8.70;99.90
24614;DHT22;12760;46.296;25.290;2022-10-16T06:21:26;8.70;99.90
24614;DHT22;12760;46.296;25.290;2022-10-16T06:23:53;8.70;99.90
24614;DHT22;12760;46.296;25.290;2022-10-16T06:26:22;8.80;99.90
24614;DHT22;12760;46.296;25.290;2022-10-16T06:28:48;8.90;99.90
24614;DHT22;12760;46.296;25.290;2022-10-16T06:31:15;9.00;99.90
24614;DHT22;12760;46.296;25.290;2022-10-16T06:33:41;9.10;99.90
24614;DHT22;12760;46.296;25.290;2022-10-16T06:36:12;9.20;99.90
24614;DHT22;12760;46.296;25.290;2022-10-16T06:38:40;9.40;99.90
24614;DHT22;12760;46.296;25.290;2022-10-16T06:41:07;9.60;99.90
24614;DHT22;12760;46.296;25.290;2022-10-16T06:43:33;9.70;99.90
24614;DHT22;12760;46.296;25.290;2022-10-16T06:46:03;9.80;99.90
24614;DHT22;12760;46.296;25.290;2022-10-16T06:48:29;10.00;99.90
24614;DHT22;12760;46.296;25.290;2022-10-16T06:51:16;10.10;99.90
24614;DHT22;12760;46.296;25.290;2022-10-16T06:53:47;10.30;99.90
24614;DHT22;12760;46.296;25.290;2022-10-16T06:56:19;10.50;99.90
24614;DHT22;12760;46.296;25.290;2022-10-16T06:58:45;10.70;99.90
24614;DHT22;12760;46.296;25.290;2022-10-16T07:01:12;11.00;99.90
24614;DHT22;12760;46.296;25.290;2022-10-16T07:03:39;11.20;99.90
24614;DHT22;12760;46.296;25.290;2022-10-16T07:06:06;11.40;99.90
24614;DHT22;12760;46.296;25.290;2022-10-16T07:08:37;11.50;99.90
24614;DHT22;12760;46.296;25.290;2022-10-16T07:11:09;11.60;99.90
24614;DHT22;12760;46.296;25.290;2022-10-16T07:13:36;11.80;99.90
24614;DHT22;12760;46.296;25.290;2022-10-16T07:16:12;12.00;99.90
24614;DHT22;12760;46.296;25.290;2022-10-16T07:18:39;12.10;99.90
24614;DHT22;12760;46.296;25.290;2022-10-16T07:21:14;12.20;99.90
24614;DHT22;12760;46.296;25.290;2022-10-16T07:23:41;12.30;99.90
24614;DHT22;12760;46.296;25.290;2022-10-16T07:26:07;12.40;99.90
24614;DHT22;12760;46.296;25.290;2022-10-16T07:28:34;12.60;99.90
24614;DHT22;12760;46.296;25.290;2022-10-16T07:31:01;12.70;99.90
24614;DHT22;12760;46.296;25.290;2022-10-16T07:33:27;12.80;99.90
24614;DHT22;12760;46.296;25.290;2022-10-16T07:35:54;13.00;99.90
24614;DHT22;12760;46.296;25.290;2022-10-16T07:38:21;13.10;99.90
24614;DHT22;12760;46.296;25.290;2022-10-16T07:40:47;13.20;99.90
24614;DHT22;12760;46.296;25.290;2022-10-16T07:43:14;13.20;99.90
24614;DHT22;12760;46.296;25.290;2022-10-16T07:45:50;13.50;99.90
24614;DHT22;12760;46.296;25.290;2022-10-16T07:48:17;13.50;99.90
24614;DHT22;12760;46.296;25.290;2022-10-16T07:50:43;13.60;99.90
24614;DHT22;12760;46.296;25.290;2022-10-16T07:53:09;13.70;99.90
24614;DHT22;12760;46.296;25.290;2022-10-16T07:55:36;13.90;99.90
24614;DHT22;12760;46.296;25.290;2022-10-16T07:58:01;14.00;99.90
24614;DHT22;12760;46.296;25.290;2022-10-16T08:00:27;14.10;99.90
24614;DHT22;12760;46.296;25.290;2022-10-16T08:02:53;14.30;99.90
24614;DHT22;12760;46.296;25.290;2022-10-16T08:05:18;14.40;99.90
24614;DHT22;12760;46.296;25.290;2022-10-16T08:07:51;14.60;99.90
24614;DHT22;12760;46.296;25.290;2022-10-16T08:10:19;14.80;99.90
24614;DHT22;12760;46.296;25.290;2022-10-16T08:12:45;14.90;99.90
24614;DHT22;12760;46.296;25.290;2022-10-16T08:15:11;15.10;99.90
24614;DHT22;12760;46.296;25.290;2022-10-16T08:17:37;15.20;99.90
24614;DHT22;12760;46.296;25.290;2022-10-16T08:20:03;15.30;99.90
24614;DHT22;12760;46.296;25.290;2022-10-16T08:22:29;15.30;99.90
24614;DHT22;12760;46.296;25.290;2022-10-16T08:24:54;15.30;99.90
24614;DHT22;12760;46.296;25.290;2022-10-16T08:27:20;15.40;99.90
24614;DHT22;12760;46.296;25.290;2022-10-16T08:29:46;15.40;99.90
24614;DHT22;12760;46.296;25.290;2022-10-16T08:32:11;15.60;99.90
24614;DHT22;12760;46.296;25.290;2022-10-16T08:34:37;15.70;99.90
24614;DHT22;12760;46.296;25.290;2022-10-16T08:37:03;15.80;99.90
24614;DHT22;12760;46.296;25.290;2022-10-16T08:39:29;15.90;99.90
24614;DHT22;12760;46.296;25.290;2022-10-16T08:50:27;16.20;99.90
24614;DHT22;12760;46.296;25.290;2022-10-16T08:52:54;16.30;99.90
24614;DHT22;12760;46.296;25.290;2022-10-16T08:55:34;16.30;99.90
24614;DHT22;12760;46.296;25.290;2022-10-16T08:58:16;16.30;99.90
24614;DHT22;12760;46.296;25.290;2022-10-16T09:00:45;16.30;99.90
24614;DHT22;12760;46.296;25.290;2022-10-16T09:03:28;16.20;99.90
24614;DHT22;12760;46.296;25.290;2022-10-16T09:14:14;16.70;99.90
24614;DHT22;12760;46.296;25.290;2022-10-16T09:16:53;16.80;99.90
24614;DHT22;12760;46.296;25.290;2022-10-16T09:19:34;16.90;99.90
24614;DHT22;12760;46.296;25.290;2022-10-16T09:22:12;16.90;99.90
24614;DHT22;12760;46.296;25.290;2022-10-16T09:24:39;17.10;99.90
24614;DHT22;12760;46.296;25.290;2022-10-16T09:27:11;17.20;99.90
24614;DHT22;12760;46.296;25.290;2022-10-16T09:29:37;17.20;99.90
24614;DHT22;12760;46.296;25.290;2022-10-16T09:32:12;17.20;99.90
24614;DHT22;12760;46.296;25.290;2022-10-16T09:34:43;17.30;99.90
24614;DHT22;12760;46.296;25.290;2022-10-16T09:37:13;17.40;99.90
24614;DHT22;12760;46.296;25.290;2022-10-16T09:39:47;17.40;99.90
24614;DHT22;12760;46.296;25.290;2022-10-16T09:44:50;17.50;99.90
24614;DHT22;12760;46.296;25.290;2022-10-16T09:47:21;17.60;99.90
24614;DHT22;12760;46.296;25.290;2022-10-16T09:49:59;17.70;99.90
24614;DHT22;12760;46.296;25.290;2022-10-16T09:52:28;17.70;99.90
24614;DHT22;12760;46.296;25.290;2022-10-16T09:54:56;17.70;99.90
24614;DHT22;12760;46.296;25.290;2022-10-16T09:57:23;17.70;99.90
24614;DHT22;12760;46.296;25.290;2022-10-16T09:59:58;17.80;99.90
24614;DHT22;12760;46.296;25.290;2022-10-16T10:02:34;17.90;99.90
24614;DHT22;12760;46.296;25.290;2022-10-16T10:05:00;18.00;99.90
24614;DHT22;12760;46.296;25.290;2022-10-16T10:07:32;17.90;99.90
24614;DHT22;12760;46.296;25.290;2022-10-16T10:10:03;17.90;99.90
24614;DHT22;12760;46.296;25.290;2022-10-16T10:12:31;18.00;99.90
24614;DHT22;12760;46.296;25.290;2022-10-16T10:15:03;18.00;99.90
24614;DHT22;12760;46.296;25.290;2022-10-16T10:17:31;18.00;99.90
24614;DHT22;12760;46.296;25.290;2022-10-16T10:19:59;18.10;99.90
24614;DHT22;12760;46.296;25.290;2022-10-16T10:22:41;18.20;99.90
24614;DHT22;12760;46.296;25.290;2022-10-16T10:30:37;18.40;99.90
24614;DHT22;12760;46.296;25.290;2022-10-16T10:35:49;18.30;99.90
24614;DHT22;12760;46.296;25.290;2022-10-16T10:38:44;18.30;99.90
24614;DHT22;12760;46.296;25.290;2022-10-16T10:41:36;18.20;99.90
24614;DHT22;12760;46.296;25.290;2022-10-16T11:09:11;18.40;99.90
24614;DHT22;12760;46.296;25.290;2022-10-16T11:11:43;18.40;99.90
24614;DHT22;12760;46.296;25.290;2022-10-16T11:14:30;18.50;99.90
24614;DHT22;12760;46.296;25.290;2022-10-16T11:17:25;18.70;99.90
24614;DHT22;12760;46.296;25.290;2022-10-16T11:22:32;18.60;99.90
24614;DHT22;12760;46.296;25.290;2022-10-16T11:25:11;18.70;99.90
24614;DHT22;12760;46.296;25.290;2022-10-16T11:30:20;18.80;99.90
24614;DHT22;12760;46.296;25.290;2022-10-16T11:35:49;18.80;99.90
24614;DHT22;12760;46.296;25.290;2022-10-16T11:41:24;18.90;99.90
24614;DHT22;12760;46.296;25.290;2022-10-16T11:44:03;18.90;99.90
24614;DHT22;12760;46.296;25.290;2022-10-16T11:46:33;18.90;99.90
24614;DHT22;12760;46.296;25.290;2022-10-16T11:49:15;18.80;99.90
24614;DHT22;12760;46.296;25.290;2022-10-16T11:51:51;18.80;99.90
24614;DHT22;12760;46.296;25.290;2022-10-16T11:54:38;18.90;99.90
24614;DHT22;12760;46.296;25.290;2022-10-16T11:57:20;18.90;99.90
24614;DHT22;12760;46.296;25.290;2022-10-16T11:59:55;18.90;99.90
24614;DHT22;12760;46.296;25.290;2022-10-16T12:05:25;19.10;99.90
24614;DHT22;12760;46.296;25.290;2022-10-16T12:08:09;18.80;99.90
24614;DHT22;12760;46.296;25.290;2022-10-16T12:10:37;18.70;99.90
24614;DHT22;12760;46.296;25.290;2022-10-16T12:13:34;18.70;99.90
24614;DHT22;12760;46.296;25.290;2022-10-16T12:18:42;18.70;99.90
24614;DHT22;12760;46.296;25.290;2022-10-16T12:21:08;18.70;99.90
24614;DHT22;12760;46.296;25.290;2022-10-16T12:23:46;18.80;99.90
24614;DHT22;12760;46.296;25.290;2022-10-16T12:26:13;18.80;99.90
24614;DHT22;12760;46.296;25.290;2022-10-16T12:28:39;18.80;99.90
24614;DHT22;12760;46.296;25.290;2022-10-16T12:31:07;18.80;99.90
24614;DHT22;12760;46.296;25.290;2022-10-16T12:33:52;18.80;99.90
24614;DHT22;12760;46.296;25.290;2022-10-16T12:36:33;18.90;99.90
24614;DHT22;12760;46.296;25.290;2022-10-16T12:39:00;19.00;99.90
24614;DHT22;12760;46.296;25.290;2022-10-16T12:41:28;18.90;99.90
24614;DHT22;12760;46.296;25.290;2022-10-16T12:43:55;18.80;99.90
24614;DHT22;12760;46.296;25.290;2022-10-16T12:46:41;18.80;99.90
24614;DHT22;12760;46.296;25.290;2022-10-16T12:51:39;18.80;99.90
24614;DHT22;12760;46.296;25.290;2022-10-16T12:54:26;18.80;99.90
24614;DHT22;12760;46.296;25.290;2022-10-16T13:05:42;18.90;99.90
24614;DHT22;12760;46.296;25.290;2022-10-16T13:24:19;19.00;99.90
24614;DHT22;12760;46.296;25.290;2022-10-16T13:27:14;19.00;99.90
24614;DHT22;12760;46.296;25.290;2022-10-16T13:29:44;19.00;99.90
24614;DHT22;12760;46.296;25.290;2022-10-16T13:32:11;18.90;99.90
24614;DHT22;12760;46.296;25.290;2022-10-16T13:34:47;18.90;99.90
24614;DHT22;12760;46.296;25.290;2022-10-16T13:37:25;18.90;99.90
24614;DHT22;12760;46.296;25.290;2022-10-16T13:39:50;18.90;99.90
24614;DHT22;12760;46.296;25.290;2022-10-16T13:42:25;18.90;99.90
24614;DHT22;12760;46.296;25.290;2022-10-16T13:44:53;18.90;99.90
24614;DHT22;12760;46.296;25.290;2022-10-16T13:47:26;18.90;99.90
24614;DHT22;12760;46.296;25.290;2022-10-16T13:50:05;18.90;99.90
24614;DHT22;12760;46.296;25.290;2022-10-16T13:52:31;18.90;99.90
24614;DHT22;12760;46.296;25.290;2022-10-16T13:54:57;18.90;99.90
24614;DHT22;12760;46.296;25.290;2022-10-16T13:57:24;18.90;99.90
24614;DHT22;12760;46.296;25.290;2022-10-16T13:59:50;18.90;99.90
24614;DHT22;12760;46.296;25.290;2022-10-16T14:02:50;18.80;99.90
24614;DHT22;12760;46.296;25.290;2022-10-16T14:05:18;18.80;99.90
24614;DHT22;12760;46.296;25.290;2022-10-16T14:07:49;18.80;99.90
24614;DHT22;12760;46.296;25.290;2022-10-16T14:10:42;18.80;99.90
24614;DHT22;12760;46.296;25.290;2022-10-16T14:13:15;18.80;99.90
24614;DHT22;12760;46.296;25.290;2022-10-16T14:15:47;18.70;99.90
24614;DHT22;12760;46.296;25.290;2022-10-16T14:18:23;18.70;99.90
24614;DHT22;12760;46.296;25.290;2022-10-16T14:20:50;18.70;99.90
24614;DHT22;12760;46.296;25.290;2022-10-16T14:23:23;18.60;99.90
24614;DHT22;12760;46.296;25.290;2022-10-16T14:25:53;18.60;99.90
24614;DHT22;12760;46.296;25.290;2022-10-16T14:28:21;18.60;99.90
24614;DHT22;12760;46.296;25.290;2022-10-16T14:30:58;18.50;99.90
24614;DHT22;12760;46.296;25.290;2022-10-16T14:33:31;18.50;99.90
24614;DHT22;12760;46.296;25.290;2022-10-16T14:36:12;18.50;99.90
24614;DHT22;12760;46.296;25.290;2022-10-16T14:38:40;18.40;99.90
24614;DHT22;12760;46.296;25.290;2022-10-16T14:41:06;18.40;99.90
24614;DHT22;12760;46.296;25.290;2022-10-16T14:43:40;18.40;99.90
24614;DHT22;12760;46.296;25.290;2022-10-16T14:46:13;18.30;99.90
24614;DHT22;12760;46.296;25.290;2022-10-16T14:48:50;18.30;99.90
24614;DHT22;12760;46.296;25.290;2022-10-16T14:51:18;18.30;99.90
24614;DHT22;12760;46.296;25.290;2022-10-16T14:53:44;18.20;99.90
24614;DHT22;12760;46.296;25.290;2022-10-16T14:56:19;18.10;99.90
24614;DHT22;12760;46.296;25.290;2022-10-16T14:58:45;18.10;99.90
24614;DHT22;12760;46.296;25.290;2022-10-16T15:01:11;18.00;99.90
24614;DHT22;12760;46.296;25.290;2022-10-16T15:03:38;17.90;99.90
24614;DHT22;12760;46.296;25.290;2022-10-16T15:06:04;17.90;99.90
24614;DHT22;12760;46.296;25.290;2022-10-16T15:08:34;17.80;99.90
24614;DHT22;12760;46.296;25.290;2022-10-16T15:11:00;17.80;99.90
24614;DHT22;12760;46.296;25.290;2022-10-16T15:13:26;17.70;99.90
24614;DHT22;12760;46.296;25.290;2022-10-16T15:15:53;17.60;99.90
24614;DHT22;12760;46.296;25.290;2022-10-16T15:18:18;17.50;99.90
24614;DHT22;12760;46.296;25.290;2022-10-16T15:20:50;17.40;99.90
24614;DHT22;12760;46.296;25.290;2022-10-16T15:23:19;17.30;99.90
24614;DHT22;12760;46.296;25.290;2022-10-16T15:25:50;17.10;99.90
24614;DHT22;12760;46.296;25.290;2022-10-16T15:28:17;17.10;99.90
24614;DHT22;12760;46.296;25.290;2022-10-16T15:30:43;17.00;99.90
24614;DHT22;12760;46.296;25.290;2022-10-16T15:33:20;16.90;99.90
24614;DHT22;12760;46.296;25.290;2022-10-16T15:35:47;16.80;99.90
24614;DHT22;12760;46.296;25.290;2022-10-16T15:38:14;16.60;99.90
24614;DHT22;12760;46.296;25.290;2022-10-16T15:40:40;16.30;99.90
24614;DHT22;12760;46.296;25.290;2022-10-16T15:43:06;16.30;99.90
24614;DHT22;12760;46.296;25.290;2022-10-16T15:45:33;16.20;99.90
24614;DHT22;12760;46.296;25.290;2022-10-16T15:47:58;16.10;99.90
24614;DHT22;12760;46.296;25.290;2022-10-16T15:50:24;16.10;99.90
24614;DHT22;12760;46.296;25.290;2022-10-16T15:52:51;16.10;99.90
24614;DHT22;12760;46.296;25.290;2022-10-16T15:55:17;16.10;99.90
24614;DHT22;12760;46.296;25.290;2022-10-16T15:57:44;16.00;99.90
24614;DHT22;12760;46.296;25.290;2022-10-16T16:00:16;15.90;99.90
24614;DHT22;12760;46.296;25.290;2022-10-16T16:02:44;15.90;99.90
24614;DHT22;12760;46.296;25.290;2022-10-16T16:05:15;15.90;99.90
24614;DHT22;12760;46.296;25.290;2022-10-16T16:07:40;15.80;99.90
24614;DHT22;12760;46.296;25.290;2022-10-16T16:10:08;15.70;99.90
24614;DHT22;12760;46.296;25.290;2022-10-16T16:12:34;15.70;99.90
24614;DHT22;12760;46.296;25.290;2022-10-16T16:15:00;15.70;99.90
24614;DHT22;12760;46.296;25.290;2022-10-16T16:17:26;15.50;99.90
24614;DHT22;12760;46.296;25.290;2022-10-16T16:19:51;15.50;99.90
24614;DHT22;12760;46.296;25.290;2022-10-16T16:22:17;15.40;99.90
24614;DHT22;12760;46.296;25.290;2022-10-16T16:24:43;15.30;99.90
24614;DHT22;12760;46.296;25.290;2022-10-16T16:27:09;15.20;99.90
24614;DHT22;12760;46.296;25.290;2022-10-16T16:29:35;15.20;99.90
24614;DHT22;12760;46.296;25.290;2022-10-16T16:32:01;15.20;99.90
24614;DHT22;12760;46.296;25.290;2022-10-16T16:34:27;15.20;99.90
24614;DHT22;12760;46.296;25.290;2022-10-16T16:36:54;15.20;99.90
24614;DHT22;12760;46.296;25.290;2022-10-16T16:39:21;15.10;99.90
24614;DHT22;12760;46.296;25.290;2022-10-16T16:41:46;15.10;99.90
24614;DHT22;12760;46.296;25.290;2022-10-16T16:44:13;15.00;99.90
24614;DHT22;12760;46.296;25.290;2022-10-16T16:46:40;15.00;99.90
24614;DHT22;12760;46.296;25.290;2022-10-16T16:49:06;14.90;99.90
24614;DHT22;12760;46.296;25.290;2022-10-16T16:51:32;14.90;99.90
24614;DHT22;12760;46.296;25.290;2022-10-16T16:53:58;14.90;99.90
24614;DHT22;12760;46.296;25.290;2022-10-16T16:56:25;14.80;99.90
24614;DHT22;12760;46.296;25.290;2022-10-16T16:58:53;14.70;99.90
24614;DHT22;12760;46.296;25.290;2022-10-16T17:01:21;14.60;99.90
24614;DHT22;12760;46.296;25.290;2022-10-16T17:03:49;14.60;99.90
24614;DHT22;12760;46.296;25.290;2022-10-16T17:06:15;14.60;99.90
24614;DHT22;12760;46.296;25.290;2022-10-16T17:08:42;14.50;99.90
24614;DHT22;12760;46.296;25.290;2022-10-16T17:11:16;14.50;99.90
24614;DHT22;12760;46.296;25.290;2022-10-16T17:13:43;14.50;99.90
24614;DHT22;12760;46.296;25.290;2022-10-16T17:16:09;14.40;99.90
24614;DHT22;12760;46.296;25.290;2022-10-16T17:18:35;14.40;99.90
24614;DHT22;12760;46.296;25.290;2022-10-16T17:21:06;14.30;99.90